createdAt,value
2018-12-15T00:03:22.492Z,9.13
2018-12-15T00:08:15.735Z,10.50
2018-12-15T00:13:08.916Z,9.38
2018-12-15T00:18:02.190Z,10.45
2018-12-15T00:22:55.377Z,8.98
2018-12-15T00:27:48.791Z,8.83
2018-12-15T00:32:42.060Z,9.53
2018-12-15T00:37:35.258Z,8.93
2018-12-15T00:42:31.448Z,9.05
2018-12-15T00:47:24.726Z,8.43
2018-12-15T00:52:17.911Z,7.75
2018-12-15T00:57:12.489Z,8.48
2018-12-15T01:02:05.784Z,8.05
2018-12-15T01:06:59.211Z,8.43
2018-12-15T01:11:52.498Z,7.80
2018-12-15T01:16:46.011Z,7.67
2018-12-15T01:21:39.373Z,7.10
2018-12-15T01:26:33.109Z,7.40
2018-12-15T01:31:26.337Z,7.40
2018-12-15T01:36:19.591Z,7.97
2018-12-15T01:41:12.815Z,7.40
2018-12-15T01:46:06.053Z,7.70
2018-12-15T01:50:59.504Z,8.40
2018-12-15T01:55:53.082Z,8.43
2018-12-15T02:00:46.606Z,8.40
2018-12-15T02:05:39.851Z,8.05
2018-12-15T02:10:33.043Z,8.13
2018-12-15T02:15:26.333Z,7.72
2018-12-15T02:20:19.589Z,8.75
2018-12-15T02:25:14.013Z,8.33
2018-12-15T02:30:07.952Z,8.38
2018-12-15T02:35:01.259Z,7.58
2018-12-15T02:39:54.579Z,7.35
2018-12-15T02:44:47.840Z,7.90
2018-12-15T02:49:41.452Z,8.25
2018-12-15T02:54:34.815Z,7.65
2018-12-15T02:59:27.999Z,7.85
2018-12-15T03:04:21.412Z,8.40
2018-12-15T03:09:14.963Z,7.47
2018-12-15T03:14:08.150Z,7.08
2018-12-15T03:19:11.027Z,7.58
2018-12-15T03:24:04.227Z,8.00
2018-12-15T03:28:57.431Z,7.90
2018-12-15T03:33:51.444Z,7.78
2018-12-15T03:38:44.645Z,7.85
2018-12-15T03:43:38.047Z,7.58
2018-12-15T03:48:31.209Z,8.05
2018-12-15T03:53:24.388Z,7.78
2018-12-15T03:58:17.575Z,7.67
2018-12-15T04:03:10.896Z,7.55
2018-12-15T04:08:04.134Z,9.00
2018-12-15T04:12:57.324Z,8.08
2018-12-15T04:17:50.509Z,8.38
2018-12-15T04:22:44.749Z,8.45
2018-12-15T04:27:37.937Z,8.05
2018-12-15T04:32:31.128Z,8.73
2018-12-15T04:37:24.342Z,8.13
2018-12-15T04:42:17.559Z,9.03
2018-12-15T04:47:12.252Z,8.95
2018-12-15T04:52:05.462Z,8.30
2018-12-15T04:56:58.674Z,7.85
2018-12-15T05:01:51.849Z,7.72
2018-12-15T05:06:45.052Z,7.80
2018-12-15T05:11:38.283Z,7.78
2018-12-15T05:16:31.504Z,7.83
2018-12-15T05:21:24.710Z,8.33
2018-12-15T05:26:17.891Z,7.55
2018-12-15T05:31:12.180Z,8.00
2018-12-15T05:36:05.361Z,7.87
2018-12-15T05:41:00.201Z,8.15
2018-12-15T05:45:53.403Z,7.97
2018-12-15T05:50:46.624Z,8.35
2018-12-15T05:55:40.321Z,8.33
2018-12-15T06:00:33.537Z,8.73
2018-12-15T06:05:27.053Z,8.23
2018-12-15T06:10:20.254Z,8.33
2018-12-15T06:15:13.584Z,7.62
2018-12-15T06:20:07.512Z,8.70
2018-12-15T06:25:00.690Z,8.95
2018-12-15T06:29:53.904Z,8.03
2018-12-15T06:34:48.325Z,8.65
2018-12-15T06:39:41.536Z,8.88
2018-12-15T06:44:34.769Z,8.65
2018-12-15T06:49:28.289Z,8.43
2018-12-15T06:54:22.293Z,8.90
2018-12-15T06:59:16.132Z,8.80
2018-12-15T07:04:09.356Z,9.48
2018-12-15T07:09:03.442Z,9.48
2018-12-15T07:13:56.632Z,9.13
2018-12-15T07:18:50.125Z,9.23
2018-12-15T07:23:43.454Z,10.25
2018-12-15T07:28:36.774Z,9.68
2018-12-15T07:33:29.956Z,9.95
2018-12-15T07:38:23.234Z,10.05
2018-12-15T07:43:16.415Z,9.75
2018-12-15T07:48:09.599Z,9.75
2018-12-15T07:53:02.823Z,10.70
2018-12-15T07:57:56.001Z,10.32
2018-12-15T08:02:49.196Z,10.38
2018-12-15T08:07:42.530Z,11.15
2018-12-15T08:12:38.699Z,10.13
2018-12-15T08:17:31.924Z,11.00
2018-12-15T08:22:26.287Z,11.45
2018-12-15T08:27:19.678Z,10.88
2018-12-15T08:32:13.053Z,11.10
2018-12-15T08:37:06.474Z,9.93
2018-12-15T08:41:59.677Z,10.40
2018-12-15T08:46:52.890Z,10.50
2018-12-15T08:51:46.056Z,10.40
2018-12-15T08:56:39.375Z,11.20
2018-12-15T09:01:32.667Z,11.03
2018-12-15T09:06:25.917Z,10.72
2018-12-15T09:11:19.873Z,11.53
2018-12-15T09:16:13.835Z,11.70
2018-12-15T09:21:07.252Z,11.60
2018-12-15T09:26:00.475Z,11.75
2018-12-15T09:30:53.805Z,11.83
2018-12-15T09:35:47.151Z,12.78
2018-12-15T09:40:40.428Z,12.65
2018-12-15T09:45:33.939Z,11.12
2018-12-15T09:50:27.375Z,12.70
2018-12-15T09:55:20.720Z,12.58
2018-12-15T10:00:14.420Z,13.10
2018-12-15T10:05:07.826Z,12.10
2018-12-15T10:10:01.028Z,12.23
2018-12-15T10:14:55.319Z,11.30
2018-12-15T10:19:50.035Z,11.33
2018-12-15T10:24:43.242Z,11.85
2018-12-15T10:29:42.049Z,12.43
2018-12-15T10:34:35.272Z,12.30
2018-12-15T10:39:28.542Z,11.88
2018-12-15T10:44:21.730Z,11.10
2018-12-15T10:49:15.475Z,11.78
2018-12-15T10:54:08.786Z,11.93
2018-12-15T10:59:02.686Z,10.82
2018-12-15T11:04:00.758Z,11.25
2018-12-15T11:08:51.300Z,11.95
2018-12-15T11:13:45.367Z,11.78
2018-12-15T11:18:38.657Z,12.15
2018-12-15T11:23:32.198Z,11.80
2018-12-15T11:28:25.583Z,11.18
2018-12-15T11:33:18.853Z,10.13
2018-12-15T11:38:12.098Z,11.97
2018-12-15T11:43:05.463Z,12.23
2018-12-15T11:47:58.667Z,11.80
2018-12-15T11:52:51.946Z,11.68
2018-12-15T11:57:45.128Z,11.12
2018-12-15T12:02:39.452Z,11.80
2018-12-15T12:07:32.701Z,10.40
2018-12-15T12:12:26.937Z,10.55
2018-12-15T12:17:20.172Z,10.55
2018-12-15T12:22:13.595Z,11.95
2018-12-15T12:27:06.810Z,10.85
2018-12-15T12:32:01.730Z,11.68
2018-12-15T12:36:54.983Z,11.15
2018-12-15T12:41:55.385Z,11.15
2018-12-15T12:46:49.096Z,11.18
2018-12-15T12:51:42.790Z,11.20
2018-12-15T12:56:36.018Z,11.22
2018-12-15T13:01:29.396Z,11.78
2018-12-15T13:06:22.604Z,10.90
2018-12-15T13:11:16.184Z,10.53
2018-12-15T13:16:09.452Z,11.05
2018-12-15T13:21:02.703Z,11.65
2018-12-15T13:25:55.933Z,10.58
2018-12-15T13:30:49.105Z,11.67
2018-12-15T13:35:42.359Z,11.63
2018-12-15T13:40:35.689Z,10.90
2018-12-15T13:45:29.313Z,10.10
2018-12-15T13:50:22.580Z,10.32
2018-12-15T13:55:15.797Z,11.68
2018-12-15T14:00:09.293Z,10.48
2018-12-15T14:05:02.716Z,10.68
2018-12-15T14:09:55.951Z,10.60
2018-12-15T14:14:49.275Z,11.33
2018-12-15T14:19:42.449Z,11.03
2018-12-15T14:24:35.727Z,10.08
2018-12-15T14:29:28.925Z,10.45
2018-12-15T14:34:22.086Z,10.13
2018-12-15T14:39:15.303Z,10.20
2018-12-15T14:44:09.139Z,10.35
2018-12-15T14:49:02.897Z,10.90
2018-12-15T14:53:56.119Z,11.73
2018-12-15T14:58:49.385Z,10.98
2018-12-15T15:03:42.603Z,10.85
2018-12-15T15:08:35.813Z,11.70
2018-12-15T15:13:34.546Z,11.20
2018-12-15T15:18:24.415Z,11.53
2018-12-15T15:23:17.703Z,11.22
2018-12-15T15:28:10.947Z,11.97
2018-12-15T15:33:04.243Z,11.53
2018-12-15T15:37:57.514Z,11.18
2018-12-15T15:42:51.679Z,11.50
2018-12-15T15:47:44.974Z,10.50
2018-12-15T15:52:38.338Z,10.90
2018-12-15T15:57:32.659Z,11.12
2018-12-15T16:02:26.108Z,10.55
2018-12-15T16:07:19.365Z,11.05
2018-12-15T16:12:12.648Z,12.78
2018-12-15T16:17:06.104Z,11.40
2018-12-15T16:21:59.359Z,11.20
2018-12-15T16:26:52.569Z,11.40
2018-12-15T16:31:46.448Z,12.18
2018-12-15T16:36:39.729Z,11.18
2018-12-15T16:41:32.934Z,13.03
2018-12-15T16:46:26.123Z,11.50
2018-12-15T16:51:19.688Z,11.57
2018-12-15T16:56:12.885Z,11.97
2018-12-15T17:01:06.810Z,11.97
2018-12-15T17:06:00.074Z,12.43
2018-12-15T17:10:53.324Z,10.28
2018-12-15T17:15:46.525Z,12.30
2018-12-15T17:20:39.720Z,11.70
2018-12-15T17:25:33.474Z,12.05
2018-12-15T17:30:26.981Z,12.68
2018-12-15T17:35:20.827Z,11.78
2018-12-15T17:40:15.068Z,11.57
2018-12-15T17:45:08.958Z,12.13
2018-12-15T17:50:02.235Z,11.63
2018-12-15T17:54:56.172Z,11.45
2018-12-15T17:59:49.537Z,11.88
2018-12-15T18:04:42.851Z,12.63
2018-12-15T18:09:36.066Z,11.35
2018-12-15T18:14:29.359Z,11.88
2018-12-15T18:19:23.125Z,10.88
2018-12-15T18:24:16.340Z,12.85
2018-12-15T18:29:09.526Z,12.50
2018-12-15T18:34:02.778Z,12.90
2018-12-15T18:38:56.076Z,11.73
2018-12-15T18:43:49.305Z,11.83
2018-12-15T18:48:42.763Z,13.85
2018-12-15T18:53:36.353Z,13.03
2018-12-15T18:58:29.622Z,13.03
2018-12-15T19:03:23.265Z,13.25
2018-12-15T19:08:16.619Z,13.10
2018-12-15T19:13:09.853Z,14.00
2018-12-15T19:18:03.181Z,11.70
2018-12-15T19:22:56.408Z,13.88
2018-12-15T19:27:49.622Z,12.28
2018-12-15T19:32:43.965Z,13.25
2018-12-15T19:37:37.710Z,13.55
2018-12-15T19:42:30.969Z,14.10
2018-12-15T19:47:24.153Z,13.22
2018-12-15T19:52:17.410Z,12.78
2018-12-15T19:57:10.646Z,13.03
2018-12-15T20:02:03.890Z,14.05
2018-12-15T20:06:57.145Z,14.15
2018-12-15T20:11:50.373Z,12.98
2018-12-15T20:16:43.722Z,12.43
2018-12-15T20:21:36.927Z,14.15
2018-12-15T20:26:30.239Z,13.65
2018-12-15T20:31:23.495Z,13.60
2018-12-15T20:36:16.721Z,13.38
2018-12-15T20:41:09.981Z,14.07
2018-12-15T20:46:03.353Z,12.70
2018-12-15T20:50:56.609Z,14.20
2018-12-15T20:55:50.333Z,13.68
2018-12-15T21:00:43.543Z,13.60
2018-12-15T21:05:36.941Z,15.35
2018-12-15T21:10:30.284Z,15.60
2018-12-15T21:15:28.935Z,13.60
2018-12-15T21:20:22.147Z,14.75
2018-12-15T21:25:15.368Z,13.40
2018-12-15T21:30:10.407Z,14.38
2018-12-15T21:35:04.425Z,13.22
2018-12-15T21:39:57.655Z,13.68
2018-12-15T21:44:50.895Z,13.28
2018-12-15T21:49:44.375Z,14.30
2018-12-15T21:54:37.644Z,13.95
2018-12-15T21:59:31.041Z,13.88
2018-12-15T22:04:24.249Z,13.88
2018-12-15T22:09:17.590Z,14.70
2018-12-15T22:14:10.838Z,15.35
2018-12-15T22:19:04.048Z,13.85
2018-12-15T22:23:57.279Z,14.73
2018-12-15T22:28:50.520Z,14.03
2018-12-15T22:33:43.761Z,13.00
2018-12-15T22:38:36.952Z,13.98
2018-12-15T22:43:30.637Z,14.70
2018-12-15T22:48:23.899Z,15.08
2018-12-15T22:53:17.161Z,15.47
2018-12-15T22:58:10.797Z,14.53
2018-12-15T23:03:04.457Z,16.07
2018-12-15T23:07:58.397Z,16.65
2018-12-15T23:12:51.638Z,15.05
2018-12-15T23:17:44.870Z,16.00
2018-12-15T23:22:38.108Z,16.65
2018-12-15T23:27:31.362Z,15.63
2018-12-15T23:32:24.607Z,14.85
2018-12-15T23:37:17.843Z,16.17
2018-12-15T23:42:11.169Z,16.10
2018-12-15T23:47:04.520Z,15.78
2018-12-15T23:51:57.853Z,16.07
2018-12-15T23:56:51.069Z,15.50
